sensor_id;sensor_type;location;lat;lon;timestamp;P1;durP1;ratioP1;P2;durP2;ratioP2
42702;SDS011;28341;52.064;4.920;2023-07-29T00:00:57;8.00;;;2.30;;
42702;SDS011;28341;52.064;4.920;2023-07-29T00:03:01;6.13;;;2.63;;
42702;SDS011;28341;52.064;4.920;2023-07-29T00:05:05;7.15;;;2.38;;
42702;SDS011;28341;52.064;4.920;2023-07-29T00:07:13;4.82;;;2.42;;
42702;SDS011;28341;52.064;4.920;2023-07-29T00:09:17;4.50;;;2.35;;
42702;SDS011;28341;52.064;4.920;2023-07-29T00:11:21;4.40;;;2.00;;
42702;SDS011;28341;52.064;4.920;2023-07-29T00:13:25;5.05;;;2.60;;
42702;SDS011;28341;52.064;4.920;2023-07-29T00:15:29;9.13;;;3.08;;
42702;SDS011;28341;52.064;4.920;2023-07-29T00:17:33;6.00;;;2.58;;
42702;SDS011;28341;52.064;4.920;2023-07-29T00:19:37;8.40;;;2.78;;
42702;SDS011;28341;52.064;4.920;2023-07-29T00:21:41;4.20;;;2.83;;
42702;SDS011;28341;52.064;4.920;2023-07-29T00:23:47;7.20;;;2.95;;
42702;SDS011;28341;52.064;4.920;2023-07-29T00:25:51;8.23;;;2.90;;
42702;SDS011;28341;52.064;4.920;2023-07-29T00:27:55;6.63;;;3.03;;
42702;SDS011;28341;52.064;4.920;2023-07-29T00:30:02;6.00;;;2.95;;
42702;SDS011;28341;52.064;4.920;2023-07-29T00:32:07;9.60;;;3.50;;
42702;SDS011;28341;52.064;4.920;2023-07-29T00:34:09;6.47;;;3.13;;
42702;SDS011;28341;52.064;4.920;2023-07-29T00:36:17;6.68;;;3.15;;
42702;SDS011;28341;52.064;4.920;2023-07-29T00:38:21;4.93;;;3.10;;
42702;SDS011;28341;52.064;4.920;2023-07-29T00:40:28;6.03;;;2.85;;
42702;SDS011;28341;52.064;4.920;2023-07-29T00:42:32;10.82;;;3.47;;
42702;SDS011;28341;52.064;4.920;2023-07-29T00:44:36;5.43;;;2.75;;
42702;SDS011;28341;52.064;4.920;2023-07-29T00:46:41;9.40;;;3.65;;
42702;SDS011;28341;52.064;4.920;2023-07-29T00:48:45;8.27;;;3.67;;
42702;SDS011;28341;52.064;4.920;2023-07-29T00:50:52;8.60;;;3.55;;
42702;SDS011;28341;52.064;4.920;2023-07-29T00:52:56;8.23;;;3.80;;
42702;SDS011;28341;52.064;4.920;2023-07-29T00:55:01;8.52;;;3.88;;
42702;SDS011;28341;52.064;4.920;2023-07-29T00:57:08;10.55;;;3.80;;
42702;SDS011;28341;52.064;4.920;2023-07-29T00:59:13;9.05;;;3.92;;
42702;SDS011;28341;52.064;4.920;2023-07-29T01:01:17;10.25;;;3.65;;
42702;SDS011;28341;52.064;4.920;2023-07-29T01:03:21;8.65;;;4.18;;
42702;SDS011;28341;52.064;4.920;2023-07-29T01:05:26;13.30;;;4.53;;
42702;SDS011;28341;52.064;4.920;2023-07-29T01:07:39;11.10;;;4.25;;
42702;SDS011;28341;52.064;4.920;2023-07-29T01:09:50;8.95;;;4.25;;
42702;SDS011;28341;52.064;4.920;2023-07-29T01:12:01;9.68;;;4.78;;
42702;SDS011;28341;52.064;4.920;2023-07-29T01:14:18;7.78;;;4.28;;
42702;SDS011;28341;52.064;4.920;2023-07-29T01:16:29;9.40;;;4.43;;
42702;SDS011;28341;52.064;4.920;2023-07-29T01:18:37;9.48;;;5.15;;
42702;SDS011;28341;52.064;4.920;2023-07-29T01:20:42;9.15;;;4.28;;
42702;SDS011;28341;52.064;4.920;2023-07-29T01:22:47;13.13;;;4.88;;
42702;SDS011;28341;52.064;4.920;2023-07-29T01:24:54;11.63;;;5.07;;
42702;SDS011;28341;52.064;4.920;2023-07-29T01:26:55;12.70;;;5.03;;
42702;SDS011;28341;52.064;4.920;2023-07-29T01:29:01;9.63;;;4.88;;
42702;SDS011;28341;52.064;4.920;2023-07-29T01:31:07;9.73;;;4.97;;
42702;SDS011;28341;52.064;4.920;2023-07-29T01:33:18;12.40;;;5.53;;
42702;SDS011;28341;52.064;4.920;2023-07-29T01:35:28;13.45;;;5.57;;
42702;SDS011;28341;52.064;4.920;2023-07-29T01:37:36;11.38;;;6.03;;
42702;SDS011;28341;52.064;4.920;2023-07-29T01:39:42;12.07;;;6.35;;
42702;SDS011;28341;52.064;4.920;2023-07-29T01:41:50;13.20;;;5.88;;
42702;SDS011;28341;52.064;4.920;2023-07-29T01:43:54;12.27;;;6.50;;
42702;SDS011;28341;52.064;4.920;2023-07-29T01:45:57;13.68;;;6.40;;
42702;SDS011;28341;52.064;4.920;2023-07-29T01:48:02;13.15;;;6.30;;
42702;SDS011;28341;52.064;4.920;2023-07-29T01:50:07;11.65;;;5.97;;
42702;SDS011;28341;52.064;4.920;2023-07-29T01:52:12;13.70;;;6.03;;
42702;SDS011;28341;52.064;4.920;2023-07-29T01:54:14;13.70;;;6.10;;
42702;SDS011;28341;52.064;4.920;2023-07-29T01:56:18;17.50;;;6.63;;
42702;SDS011;28341;52.064;4.920;2023-07-29T01:58:31;13.00;;;5.82;;
42702;SDS011;28341;52.064;4.920;2023-07-29T02:00:35;14.00;;;6.80;;
42702;SDS011;28341;52.064;4.920;2023-07-29T02:02:40;14.20;;;6.60;;
42702;SDS011;28341;52.064;4.920;2023-07-29T02:04:44;15.77;;;6.30;;
42702;SDS011;28341;52.064;4.920;2023-07-29T02:06:51;15.60;;;6.63;;
42702;SDS011;28341;52.064;4.920;2023-07-29T02:08:55;17.33;;;6.32;;
42702;SDS011;28341;52.064;4.920;2023-07-29T02:10:59;13.35;;;6.93;;
42702;SDS011;28341;52.064;4.920;2023-07-29T02:13:05;10.07;;;6.00;;
42702;SDS011;28341;52.064;4.920;2023-07-29T02:15:11;19.02;;;6.60;;
42702;SDS011;28341;52.064;4.920;2023-07-29T02:17:15;14.43;;;6.63;;
42702;SDS011;28341;52.064;4.920;2023-07-29T02:19:19;13.60;;;6.00;;
42702;SDS011;28341;52.064;4.920;2023-07-29T02:21:24;10.70;;;5.38;;
42702;SDS011;28341;52.064;4.920;2023-07-29T02:23:28;8.63;;;4.90;;
42702;SDS011;28341;52.064;4.920;2023-07-29T02:25:34;10.70;;;5.22;;
42702;SDS011;28341;52.064;4.920;2023-07-29T02:27:39;9.55;;;5.15;;
42702;SDS011;28341;52.064;4.920;2023-07-29T02:29:43;10.30;;;5.22;;
42702;SDS011;28341;52.064;4.920;2023-07-29T02:31:49;11.55;;;5.40;;
42702;SDS011;28341;52.064;4.920;2023-07-29T02:33:53;6.00;;;4.20;;
42702;SDS011;28341;52.064;4.920;2023-07-29T02:35:58;10.68;;;4.78;;
42702;SDS011;28341;52.064;4.920;2023-07-29T02:37:59;9.02;;;4.82;;
42702;SDS011;28341;52.064;4.920;2023-07-29T02:40:04;6.78;;;4.10;;
42702;SDS011;28341;52.064;4.920;2023-07-29T02:42:10;9.25;;;4.88;;
42702;SDS011;28341;52.064;4.920;2023-07-29T02:44:15;9.07;;;4.53;;
42702;SDS011;28341;52.064;4.920;2023-07-29T02:46:16;5.85;;;4.00;;
42702;SDS011;28341;52.064;4.920;2023-07-29T02:48:23;5.93;;;3.95;;
42702;SDS011;28341;52.064;4.920;2023-07-29T02:50:28;7.60;;;3.83;;
42702;SDS011;28341;52.064;4.920;2023-07-29T02:52:32;6.32;;;3.72;;
42702;SDS011;28341;52.064;4.920;2023-07-29T02:54:37;4.70;;;3.47;;
42702;SDS011;28341;52.064;4.920;2023-07-29T02:56:38;6.90;;;3.80;;
42702;SDS011;28341;52.064;4.920;2023-07-29T02:58:43;7.18;;;3.72;;
42702;SDS011;28341;52.064;4.920;2023-07-29T03:00:47;7.03;;;3.22;;
42702;SDS011;28341;52.064;4.920;2023-07-29T03:02:52;8.52;;;3.58;;
42702;SDS011;28341;52.064;4.920;2023-07-29T03:04:56;6.65;;;4.05;;
42702;SDS011;28341;52.064;4.920;2023-07-29T03:07:00;4.57;;;3.13;;
42702;SDS011;28341;52.064;4.920;2023-07-29T03:09:04;4.95;;;3.72;;
42702;SDS011;28341;52.064;4.920;2023-07-29T03:11:09;7.57;;;3.80;;
42702;SDS011;28341;52.064;4.920;2023-07-29T03:13:15;4.60;;;3.58;;
42702;SDS011;28341;52.064;4.920;2023-07-29T03:15:16;5.80;;;3.85;;
42702;SDS011;28341;52.064;4.920;2023-07-29T03:17:21;5.97;;;3.38;;
42702;SDS011;28341;52.064;4.920;2023-07-29T03:19:25;5.97;;;4.00;;
42702;SDS011;28341;52.064;4.920;2023-07-29T03:21:31;7.10;;;3.90;;
42702;SDS011;28341;52.064;4.920;2023-07-29T03:23:36;5.70;;;3.50;;
42702;SDS011;28341;52.064;4.920;2023-07-29T03:25:38;5.32;;;3.70;;
42702;SDS011;28341;52.064;4.920;2023-07-29T03:27:42;8.95;;;4.47;;
42702;SDS011;28341;52.064;4.920;2023-07-29T03:29:49;6.40;;;4.03;;
42702;SDS011;28341;52.064;4.920;2023-07-29T03:31:53;8.95;;;4.43;;
42702;SDS011;28341;52.064;4.920;2023-07-29T03:33:57;6.32;;;3.90;;
42702;SDS011;28341;52.064;4.920;2023-07-29T03:36:02;10.05;;;4.00;;
42702;SDS011;28341;52.064;4.920;2023-07-29T03:38:09;10.52;;;4.10;;
42702;SDS011;28341;52.064;4.920;2023-07-29T03:40:13;7.32;;;4.28;;
42702;SDS011;28341;52.064;4.920;2023-07-29T03:42:18;6.03;;;4.22;;
42702;SDS011;28341;52.064;4.920;2023-07-29T03:44:22;6.80;;;4.32;;
42702;SDS011;28341;52.064;4.920;2023-07-29T03:46:26;14.45;;;9.48;;
42702;SDS011;28341;52.064;4.920;2023-07-29T03:48:32;11.93;;;8.50;;
42702;SDS011;28341;52.064;4.920;2023-07-29T03:50:37;7.82;;;5.10;;
42702;SDS011;28341;52.064;4.920;2023-07-29T03:52:38;7.27;;;4.83;;
42702;SDS011;28341;52.064;4.920;2023-07-29T03:54:45;9.68;;;5.18;;
42702;SDS011;28341;52.064;4.920;2023-07-29T03:56:49;10.90;;;7.40;;
42702;SDS011;28341;52.064;4.920;2023-07-29T03:58:53;7.07;;;6.38;;
42702;SDS011;28341;52.064;4.920;2023-07-29T04:01:00;12.05;;;7.13;;
42702;SDS011;28341;52.064;4.920;2023-07-29T04:03:04;5.20;;;4.07;;
42702;SDS011;28341;52.064;4.920;2023-07-29T04:05:09;5.43;;;3.65;;
42702;SDS011;28341;52.064;4.920;2023-07-29T04:07:13;7.10;;;4.60;;
42702;SDS011;28341;52.064;4.920;2023-07-29T04:09:17;6.32;;;4.03;;
42702;SDS011;28341;52.064;4.920;2023-07-29T04:11:23;9.45;;;4.75;;
42702;SDS011;28341;52.064;4.920;2023-07-29T04:13:29;6.63;;;4.30;;
42702;SDS011;28341;52.064;4.920;2023-07-29T04:15:33;10.43;;;4.40;;
42702;SDS011;28341;52.064;4.920;2023-07-29T04:17:37;7.38;;;4.18;;
42702;SDS011;28341;52.064;4.920;2023-07-29T04:19:41;5.50;;;4.20;;
42702;SDS011;28341;52.064;4.920;2023-07-29T04:21:45;6.15;;;4.07;;
42702;SDS011;28341;52.064;4.920;2023-07-29T04:23:51;7.10;;;4.38;;
42702;SDS011;28341;52.064;4.920;2023-07-29T04:25:55;8.00;;;4.32;;
42702;SDS011;28341;52.064;4.920;2023-07-29T04:28:01;9.32;;;4.50;;
42702;SDS011;28341;52.064;4.920;2023-07-29T04:30:07;5.53;;;3.95;;
42702;SDS011;28341;52.064;4.920;2023-07-29T04:32:12;7.18;;;4.40;;
42702;SDS011;28341;52.064;4.920;2023-07-29T04:34:16;7.53;;;4.43;;
42702;SDS011;28341;52.064;4.920;2023-07-29T04:36:20;9.10;;;4.63;;
42702;SDS011;28341;52.064;4.920;2023-07-29T04:38:30;7.43;;;4.75;;
42702;SDS011;28341;52.064;4.920;2023-07-29T04:40:35;11.18;;;4.38;;
42702;SDS011;28341;52.064;4.920;2023-07-29T04:42:39;7.97;;;4.75;;
42702;SDS011;28341;52.064;4.920;2023-07-29T04:44:46;8.10;;;4.88;;
42702;SDS011;28341;52.064;4.920;2023-07-29T04:46:50;9.02;;;4.72;;
42702;SDS011;28341;52.064;4.920;2023-07-29T04:48:54;10.88;;;5.13;;
42702;SDS011;28341;52.064;4.920;2023-07-29T04:50:58;8.10;;;5.10;;
42702;SDS011;28341;52.064;4.920;2023-07-29T04:53:02;12.95;;;7.88;;
42702;SDS011;28341;52.064;4.920;2023-07-29T04:55:06;8.00;;;5.95;;
42702;SDS011;28341;52.064;4.920;2023-07-29T04:57:14;8.68;;;5.20;;
42702;SDS011;28341;52.064;4.920;2023-07-29T04:59:15;6.82;;;4.90;;
42702;SDS011;28341;52.064;4.920;2023-07-29T05:01:22;8.57;;;5.55;;
42702;SDS011;28341;52.064;4.920;2023-07-29T05:03:26;12.90;;;10.05;;
42702;SDS011;28341;52.064;4.920;2023-07-29T05:05:31;25.70;;;22.38;;
42702;SDS011;28341;52.064;4.920;2023-07-29T05:07:35;9.68;;;6.88;;
42702;SDS011;28341;52.064;4.920;2023-07-29T05:09:39;10.07;;;5.30;;
42702;SDS011;28341;52.064;4.920;2023-07-29T05:11:44;11.02;;;5.30;;
42702;SDS011;28341;52.064;4.920;2023-07-29T05:13:49;10.30;;;5.22;;
42702;SDS011;28341;52.064;4.920;2023-07-29T05:15:54;9.10;;;5.45;;
42702;SDS011;28341;52.064;4.920;2023-07-29T05:18:00;10.75;;;6.00;;
42702;SDS011;28341;52.064;4.920;2023-07-29T05:20:06;8.40;;;5.72;;
42702;SDS011;28341;52.064;4.920;2023-07-29T05:22:12;8.20;;;5.53;;
42702;SDS011;28341;52.064;4.920;2023-07-29T05:24:16;9.38;;;6.15;;
42702;SDS011;28341;52.064;4.920;2023-07-29T05:26:20;10.43;;;6.43;;
42702;SDS011;28341;52.064;4.920;2023-07-29T05:28:22;9.45;;;5.75;;
42702;SDS011;28341;52.064;4.920;2023-07-29T05:30:26;8.23;;;5.65;;
42702;SDS011;28341;52.064;4.920;2023-07-29T05:32:31;11.10;;;5.40;;
42702;SDS011;28341;52.064;4.920;2023-07-29T05:34:38;13.05;;;6.25;;
42702;SDS011;28341;52.064;4.920;2023-07-29T05:36:42;12.93;;;6.30;;
42702;SDS011;28341;52.064;4.920;2023-07-29T05:38:46;12.35;;;6.15;;
42702;SDS011;28341;52.064;4.920;2023-07-29T05:40:50;9.48;;;6.75;;
42702;SDS011;28341;52.064;4.920;2023-07-29T05:42:51;11.02;;;6.30;;
42702;SDS011;28341;52.064;4.920;2023-07-29T05:44:56;9.98;;;6.30;;
42702;SDS011;28341;52.064;4.920;2023-07-29T05:47:00;10.63;;;6.57;;
42702;SDS011;28341;52.064;4.920;2023-07-29T05:49:04;9.80;;;5.75;;
42702;SDS011;28341;52.064;4.920;2023-07-29T05:51:11;10.75;;;6.53;;
42702;SDS011;28341;52.064;4.920;2023-07-29T05:53:15;11.68;;;6.15;;
42702;SDS011;28341;52.064;4.920;2023-07-29T05:55:19;10.90;;;5.95;;
42702;SDS011;28341;52.064;4.920;2023-07-29T05:57:23;13.27;;;6.85;;
42702;SDS011;28341;52.064;4.920;2023-07-29T05:59:27;9.68;;;6.28;;
42702;SDS011;28341;52.064;4.920;2023-07-29T06:01:31;9.35;;;5.78;;
42702;SDS011;28341;52.064;4.920;2023-07-29T06:03:35;8.38;;;5.93;;
42702;SDS011;28341;52.064;4.920;2023-07-29T06:05:37;10.32;;;5.88;;
42702;SDS011;28341;52.064;4.920;2023-07-29T06:07:44;10.75;;;6.55;;
42702;SDS011;28341;52.064;4.920;2023-07-29T06:09:48;10.63;;;6.25;;
42702;SDS011;28341;52.064;4.920;2023-07-29T06:11:54;12.27;;;6.93;;
42702;SDS011;28341;52.064;4.920;2023-07-29T06:13:58;10.77;;;6.07;;
42702;SDS011;28341;52.064;4.920;2023-07-29T06:16:02;9.18;;;6.50;;
42702;SDS011;28341;52.064;4.920;2023-07-29T06:18:06;10.90;;;6.55;;
42702;SDS011;28341;52.064;4.920;2023-07-29T06:20:10;12.15;;;7.15;;
42702;SDS011;28341;52.064;4.920;2023-07-29T06:22:14;10.85;;;6.30;;
42702;SDS011;28341;52.064;4.920;2023-07-29T06:24:21;10.95;;;6.78;;
42702;SDS011;28341;52.064;4.920;2023-07-29T06:26:26;11.25;;;6.47;;
42702;SDS011;28341;52.064;4.920;2023-07-29T06:28:30;14.35;;;7.55;;
42702;SDS011;28341;52.064;4.920;2023-07-29T06:30:34;12.63;;;6.50;;
42702;SDS011;28341;52.064;4.920;2023-07-29T06:32:38;11.95;;;6.47;;
42702;SDS011;28341;52.064;4.920;2023-07-29T06:34:42;9.45;;;5.68;;
42702;SDS011;28341;52.064;4.920;2023-07-29T06:36:46;11.68;;;5.85;;
42702;SDS011;28341;52.064;4.920;2023-07-29T06:38:50;10.75;;;5.65;;
42702;SDS011;28341;52.064;4.920;2023-07-29T06:40:57;7.40;;;5.47;;
42702;SDS011;28341;52.064;4.920;2023-07-29T06:43:01;9.18;;;5.60;;
42702;SDS011;28341;52.064;4.920;2023-07-29T06:45:05;10.05;;;5.63;;
42702;SDS011;28341;52.064;4.920;2023-07-29T06:47:12;7.05;;;4.88;;
42702;SDS011;28341;52.064;4.920;2023-07-29T06:49:16;7.43;;;5.30;;
42702;SDS011;28341;52.064;4.920;2023-07-29T06:51:17;10.18;;;6.13;;
42702;SDS011;28341;52.064;4.920;2023-07-29T06:53:23;11.07;;;5.60;;
42702;SDS011;28341;52.064;4.920;2023-07-29T06:55:27;7.95;;;5.38;;
42702;SDS011;28341;52.064;4.920;2023-07-29T06:57:33;8.93;;;5.60;;
42702;SDS011;28341;52.064;4.920;2023-07-29T06:59:38;12.15;;;5.70;;
42702;SDS011;28341;52.064;4.920;2023-07-29T07:01:42;8.93;;;5.13;;
42702;SDS011;28341;52.064;4.920;2023-07-29T07:03:46;11.07;;;5.63;;
42702;SDS011;28341;52.064;4.920;2023-07-29T07:05:50;10.05;;;5.35;;
42702;SDS011;28341;52.064;4.920;2023-07-29T07:07:54;7.32;;;4.72;;
42702;SDS011;28341;52.064;4.920;2023-07-29T07:09:58;8.88;;;5.10;;
42702;SDS011;28341;52.064;4.920;2023-07-29T07:12:03;10.77;;;4.45;;
42702;SDS011;28341;52.064;4.920;2023-07-29T07:14:11;10.43;;;4.90;;
42702;SDS011;28341;52.064;4.920;2023-07-29T07:16:15;10.15;;;4.50;;
42702;SDS011;28341;52.064;4.920;2023-07-29T07:18:19;9.82;;;4.53;;
42702;SDS011;28341;52.064;4.920;2023-07-29T07:20:24;6.43;;;4.10;;
42702;SDS011;28341;52.064;4.920;2023-07-29T07:22:28;7.93;;;4.60;;
42702;SDS011;28341;52.064;4.920;2023-07-29T07:24:32;7.05;;;4.15;;
42702;SDS011;28341;52.064;4.920;2023-07-29T07:26:36;8.15;;;4.13;;
42702;SDS011;28341;52.064;4.920;2023-07-29T07:28:40;9.40;;;4.22;;
42702;SDS011;28341;52.064;4.920;2023-07-29T07:30:47;9.15;;;4.30;;
42702;SDS011;28341;52.064;4.920;2023-07-29T07:32:51;7.20;;;3.88;;
42702;SDS011;28341;52.064;4.920;2023-07-29T07:34:55;7.40;;;3.65;;
42702;SDS011;28341;52.064;4.920;2023-07-29T07:37:01;5.18;;;3.35;;
42702;SDS011;28341;52.064;4.920;2023-07-29T07:39:06;6.95;;;3.58;;
42702;SDS011;28341;52.064;4.920;2023-07-29T07:41:10;7.50;;;3.38;;
42702;SDS011;28341;52.064;4.920;2023-07-29T07:43:17;9.90;;;3.70;;
42702;SDS011;28341;52.064;4.920;2023-07-29T07:45:21;5.30;;;3.15;;
42702;SDS011;28341;52.064;4.920;2023-07-29T07:47:27;5.60;;;3.30;;
42702;SDS011;28341;52.064;4.920;2023-07-29T07:49:32;6.80;;;3.03;;
42702;SDS011;28341;52.064;4.920;2023-07-29T07:51:36;6.18;;;2.78;;
42702;SDS011;28341;52.064;4.920;2023-07-29T07:53:40;5.28;;;2.53;;
42702;SDS011;28341;52.064;4.920;2023-07-29T07:55:44;10.32;;;2.85;;
42702;SDS011;28341;52.064;4.920;2023-07-29T07:57:46;3.93;;;2.27;;
42702;SDS011;28341;52.064;4.920;2023-07-29T07:59:50;4.72;;;2.40;;
42702;SDS011;28341;52.064;4.920;2023-07-29T08:01:54;6.88;;;2.30;;
42702;SDS011;28341;52.064;4.920;2023-07-29T08:04:01;8.15;;;2.90;;
42702;SDS011;28341;52.064;4.920;2023-07-29T08:06:06;6.65;;;2.40;;
42702;SDS011;28341;52.064;4.920;2023-07-29T08:08:10;6.15;;;2.42;;
42702;SDS011;28341;52.064;4.920;2023-07-29T08:10:19;6.43;;;2.85;;
42702;SDS011;28341;52.064;4.920;2023-07-29T08:12:23;8.13;;;2.45;;
42702;SDS011;28341;52.064;4.920;2023-07-29T08:14:28;7.03;;;3.03;;
42702;SDS011;28341;52.064;4.920;2023-07-29T08:16:32;6.50;;;2.90;;
42702;SDS011;28341;52.064;4.920;2023-07-29T08:18:36;6.65;;;2.92;;
42702;SDS011;28341;52.064;4.920;2023-07-29T08:20:42;5.53;;;2.80;;
42702;SDS011;28341;52.064;4.920;2023-07-29T08:22:58;5.72;;;2.72;;
42702;SDS011;28341;52.064;4.920;2023-07-29T08:25:02;9.23;;;2.75;;
42702;SDS011;28341;52.064;4.920;2023-07-29T08:27:10;6.53;;;2.80;;
42702;SDS011;28341;52.064;4.920;2023-07-29T08:29:14;8.75;;;2.70;;
42702;SDS011;28341;52.064;4.920;2023-07-29T08:31:19;6.10;;;2.78;;
42702;SDS011;28341;52.064;4.920;2023-07-29T08:33:23;6.22;;;2.55;;
42702;SDS011;28341;52.064;4.920;2023-07-29T08:35:28;5.65;;;3.50;;
42702;SDS011;28341;52.064;4.920;2023-07-29T08:37:34;4.53;;;3.33;;
42702;SDS011;28341;52.064;4.920;2023-07-29T08:39:38;7.43;;;3.40;;
42702;SDS011;28341;52.064;4.920;2023-07-29T08:41:45;6.97;;;3.33;;
42702;SDS011;28341;52.064;4.920;2023-07-29T08:43:56;6.90;;;3.20;;
42702;SDS011;28341;52.064;4.920;2023-07-29T08:46:11;6.25;;;3.25;;
42702;SDS011;28341;52.064;4.920;2023-07-29T08:48:17;6.78;;;3.45;;
42702;SDS011;28341;52.064;4.920;2023-07-29T08:50:27;6.25;;;2.92;;
42702;SDS011;28341;52.064;4.920;2023-07-29T08:52:40;5.47;;;2.95;;
42702;SDS011;28341;52.064;4.920;2023-07-29T08:54:45;7.05;;;2.97;;
42702;SDS011;28341;52.064;4.920;2023-07-29T08:56:49;5.15;;;2.50;;
42702;SDS011;28341;52.064;4.920;2023-07-29T08:58:54;6.55;;;2.70;;
42702;SDS011;28341;52.064;4.920;2023-07-29T09:01:00;6.38;;;3.05;;
42702;SDS011;28341;52.064;4.920;2023-07-29T09:03:04;5.78;;;2.80;;
42702;SDS011;28341;52.064;4.920;2023-07-29T09:05:09;7.32;;;2.80;;
42702;SDS011;28341;52.064;4.920;2023-07-29T09:07:13;7.10;;;2.50;;
42702;SDS011;28341;52.064;4.920;2023-07-29T09:09:20;4.68;;;2.70;;
42702;SDS011;28341;52.064;4.920;2023-07-29T09:11:25;4.45;;;2.65;;
42702;SDS011;28341;52.064;4.920;2023-07-29T09:13:29;5.75;;;2.83;;
42702;SDS011;28341;52.064;4.920;2023-07-29T09:15:34;5.90;;;3.40;;
42702;SDS011;28341;52.064;4.920;2023-07-29T09:17:40;5.45;;;2.80;;
42702;SDS011;28341;52.064;4.920;2023-07-29T09:19:47;5.55;;;3.30;;
42702;SDS011;28341;52.064;4.920;2023-07-29T09:21:51;8.27;;;3.65;;
42702;SDS011;28341;52.064;4.920;2023-07-29T09:23:55;5.45;;;3.17;;
42702;SDS011;28341;52.064;4.920;2023-07-29T09:26:05;7.57;;;3.55;;
42702;SDS011;28341;52.064;4.920;2023-07-29T09:28:10;7.00;;;3.40;;
42702;SDS011;28341;52.064;4.920;2023-07-29T09:30:17;4.45;;;2.92;;
42702;SDS011;28341;52.064;4.920;2023-07-29T09:32:22;6.10;;;2.70;;
42702;SDS011;28341;52.064;4.920;2023-07-29T09:34:28;5.55;;;2.70;;
42702;SDS011;28341;52.064;4.920;2023-07-29T09:36:33;4.93;;;2.80;;
42702;SDS011;28341;52.064;4.920;2023-07-29T09:38:37;4.70;;;2.55;;
42702;SDS011;28341;52.064;4.920;2023-07-29T09:40:42;5.15;;;2.78;;
42702;SDS011;28341;52.064;4.920;2023-07-29T09:42:50;4.75;;;2.13;;
42702;SDS011;28341;52.064;4.920;2023-07-29T09:44:56;5.43;;;2.40;;
42702;SDS011;28341;52.064;4.920;2023-07-29T09:47:00;5.50;;;2.30;;
42702;SDS011;28341;52.064;4.920;2023-07-29T09:49:05;6.65;;;2.90;;
42702;SDS011;28341;52.064;4.920;2023-07-29T09:51:11;5.28;;;2.42;;
42702;SDS011;28341;52.064;4.920;2023-07-29T09:53:16;6.75;;;3.20;;
42702;SDS011;28341;52.064;4.920;2023-07-29T09:55:18;7.50;;;2.97;;
42702;SDS011;28341;52.064;4.920;2023-07-29T09:57:24;4.90;;;2.92;;
42702;SDS011;28341;52.064;4.920;2023-07-29T09:59:31;8.40;;;3.17;;
42702;SDS011;28341;52.064;4.920;2023-07-29T10:01:37;6.25;;;3.10;;
42702;SDS011;28341;52.064;4.920;2023-07-29T10:03:42;5.50;;;3.33;;
42702;SDS011;28341;52.064;4.920;2023-07-29T10:05:48;6.55;;;3.28;;
42702;SDS011;28341;52.064;4.920;2023-07-29T10:07:53;9.35;;;3.60;;
42702;SDS011;28341;52.064;4.920;2023-07-29T10:09:57;4.95;;;2.83;;
42702;SDS011;28341;52.064;4.920;2023-07-29T10:12:00;6.00;;;2.97;;
42702;SDS011;28341;52.064;4.920;2023-07-29T10:14:04;6.68;;;3.10;;
42702;SDS011;28341;52.064;4.920;2023-07-29T10:16:13;5.70;;;3.20;;
42702;SDS011;28341;52.064;4.920;2023-07-29T10:18:17;6.43;;;3.10;;
42702;SDS011;28341;52.064;4.920;2023-07-29T10:20:22;7.97;;;3.80;;
42702;SDS011;28341;52.064;4.920;2023-07-29T10:22:27;6.43;;;4.10;;
42702;SDS011;28341;52.064;4.920;2023-07-29T10:24:34;6.97;;;3.88;;
42702;SDS011;28341;52.064;4.920;2023-07-29T10:26:41;7.50;;;3.70;;
42702;SDS011;28341;52.064;4.920;2023-07-29T10:28:48;5.97;;;3.55;;
42702;SDS011;28341;52.064;4.920;2023-07-29T10:30:56;6.05;;;3.78;;
42702;SDS011;28341;52.064;4.920;2023-07-29T10:33:04;4.57;;;3.20;;
42702;SDS011;28341;52.064;4.920;2023-07-29T10:35:10;4.07;;;2.83;;
42702;SDS011;28341;52.064;4.920;2023-07-29T10:37:12;5.57;;;2.60;;
42702;SDS011;28341;52.064;4.920;2023-07-29T10:39:18;6.63;;;2.47;;
42702;SDS011;28341;52.064;4.920;2023-07-29T10:41:21;4.95;;;2.33;;
42702;SDS011;28341;52.064;4.920;2023-07-29T10:43:26;3.65;;;2.05;;
42702;SDS011;28341;52.064;4.920;2023-07-29T10:45:37;2.97;;;1.58;;
42702;SDS011;28341;52.064;4.920;2023-07-29T10:47:40;5.72;;;2.25;;
42702;SDS011;28341;52.064;4.920;2023-07-29T10:49:47;4.40;;;1.60;;
42702;SDS011;28341;52.064;4.920;2023-07-29T10:51:53;3.05;;;1.70;;
42702;SDS011;28341;52.064;4.920;2023-07-29T10:53:57;2.70;;;1.55;;
42702;SDS011;28341;52.064;4.920;2023-07-29T10:56:03;3.58;;;1.42;;
42702;SDS011;28341;52.064;4.920;2023-07-29T10:58:08;8.20;;;1.20;;
42702;SDS011;28341;52.064;4.920;2023-07-29T11:00:18;4.20;;;1.35;;
42702;SDS011;28341;52.064;4.920;2023-07-29T11:02:21;2.25;;;1.20;;
42702;SDS011;28341;52.064;4.920;2023-07-29T11:04:32;5.35;;;1.60;;
42702;SDS011;28341;52.064;4.920;2023-07-29T11:11:43;3.53;;;1.40;;
42702;SDS011;28341;52.064;4.920;2023-07-29T11:13:47;1.67;;;1.02;;
42702;SDS011;28341;52.064;4.920;2023-07-29T11:15:51;1.50;;;1.20;;
42702;SDS011;28341;52.064;4.920;2023-07-29T11:17:57;2.78;;;1.30;;
42702;SDS011;28341;52.064;4.920;2023-07-29T11:20:07;3.45;;;1.08;;
42702;SDS011;28341;52.064;4.920;2023-07-29T11:22:12;2.50;;;1.40;;
42702;SDS011;28341;52.064;4.920;2023-07-29T11:24:19;2.63;;;1.23;;
42702;SDS011;28341;52.064;4.920;2023-07-29T11:26:24;2.90;;;1.52;;
42702;SDS011;28341;52.064;4.920;2023-07-29T11:28:29;3.45;;;1.42;;
42702;SDS011;28341;52.064;4.920;2023-07-29T11:30:33;2.25;;;1.50;;
42702;SDS011;28341;52.064;4.920;2023-07-29T11:32:38;2.50;;;1.48;;
42702;SDS011;28341;52.064;4.920;2023-07-29T11:34:41;3.75;;;2.03;;
42702;SDS011;28341;52.064;4.920;2023-07-29T11:36:48;4.18;;;2.08;;
42702;SDS011;28341;52.064;4.920;2023-07-29T11:38:52;7.43;;;2.83;;
42702;SDS011;28341;52.064;4.920;2023-07-29T11:40:58;6.75;;;2.72;;
42702;SDS011;28341;52.064;4.920;2023-07-29T11:43:03;4.72;;;2.30;;
42702;SDS011;28341;52.064;4.920;2023-07-29T11:45:08;4.15;;;2.38;;
42702;SDS011;28341;52.064;4.920;2023-07-29T11:47:13;2.92;;;1.70;;
42702;SDS011;28341;52.064;4.920;2023-07-29T11:49:17;3.78;;;1.88;;
42702;SDS011;28341;52.064;4.920;2023-07-29T11:51:21;3.80;;;1.80;;
42702;SDS011;28341;52.064;4.920;2023-07-29T11:53:29;3.30;;;1.60;;
42702;SDS011;28341;52.064;4.920;2023-07-29T11:55:31;2.72;;;1.80;;
42702;SDS011;28341;52.064;4.920;2023-07-29T11:57:37;2.47;;;1.65;;
42702;SDS011;28341;52.064;4.920;2023-07-29T11:59:42;2.38;;;1.50;;
42702;SDS011;28341;52.064;4.920;2023-07-29T12:01:46;6.07;;;1.70;;
42702;SDS011;28341;52.064;4.920;2023-07-29T12:03:50;2.55;;;1.70;;
42702;SDS011;28341;52.064;4.920;2023-07-29T12:05:55;3.28;;;1.80;;
42702;SDS011;28341;52.064;4.920;2023-07-29T12:07:59;3.10;;;1.92;;
42702;SDS011;28341;52.064;4.920;2023-07-29T12:10:06;3.42;;;2.05;;
42702;SDS011;28341;52.064;4.920;2023-07-29T12:12:11;4.70;;;2.33;;
42702;SDS011;28341;52.064;4.920;2023-07-29T12:14:16;6.82;;;2.25;;
42702;SDS011;28341;52.064;4.920;2023-07-29T12:16:20;4.03;;;2.10;;
42702;SDS011;28341;52.064;4.920;2023-07-29T12:18:29;3.03;;;1.80;;
42702;SDS011;28341;52.064;4.920;2023-07-29T12:20:33;3.63;;;1.73;;
42702;SDS011;28341;52.064;4.920;2023-07-29T12:22:38;3.58;;;2.00;;
42702;SDS011;28341;52.064;4.920;2023-07-29T12:24:42;3.30;;;2.15;;
42702;SDS011;28341;52.064;4.920;2023-07-29T12:26:48;3.13;;;2.10;;
42702;SDS011;28341;52.064;4.920;2023-07-29T12:28:52;4.15;;;2.10;;
42702;SDS011;28341;52.064;4.920;2023-07-29T12:30:56;3.95;;;1.98;;
42702;SDS011;28341;52.064;4.920;2023-07-29T12:33:01;5.25;;;2.00;;
42702;SDS011;28341;52.064;4.920;2023-07-29T12:35:02;3.65;;;2.00;;
42702;SDS011;28341;52.064;4.920;2023-07-29T12:37:07;5.60;;;2.42;;